sensor_id;sensor_type;location;lat;lon;timestamp;P1;durP1;ratioP1;P2;durP2;ratioP2
20391;SDS011;10355;53.688;10.078;2023-03-23T00:01:01;5.90;;;2.70;;
20391;SDS011;10355;53.688;10.078;2023-03-23T00:03:43;3.90;;;2.63;;
20391;SDS011;10355;53.688;10.078;2023-03-23T00:06:26;5.80;;;2.60;;
20391;SDS011;10355;53.688;10.078;2023-03-23T00:09:08;9.60;;;2.83;;
20391;SDS011;10355;53.688;10.078;2023-03-23T00:11:51;4.53;;;2.88;;
20391;SDS011;10355;53.688;10.078;2023-03-23T00:14:45;4.50;;;2.70;;
20391;SDS011;10355;53.688;10.078;2023-03-23T00:17:27;6.63;;;3.10;;
20391;SDS011;10355;53.688;10.078;2023-03-23T00:20:09;3.72;;;3.03;;
20391;SDS011;10355;53.688;10.078;2023-03-23T00:22:52;6.68;;;3.55;;
20391;SDS011;10355;53.688;10.078;2023-03-23T00:25:33;6.32;;;3.22;;
20391;SDS011;10355;53.688;10.078;2023-03-23T00:28:16;5.70;;;3.35;;
20391;SDS011;10355;53.688;10.078;2023-03-23T00:30:59;4.68;;;2.97;;
20391;SDS011;10355;53.688;10.078;2023-03-23T00:33:41;5.60;;;3.53;;
20391;SDS011;10355;53.688;10.078;2023-03-23T00:36:24;5.97;;;3.42;;
20391;SDS011;10355;53.688;10.078;2023-03-23T00:39:06;5.78;;;3.42;;
20391;SDS011;10355;53.688;10.078;2023-03-23T00:41:48;6.35;;;3.38;;
20391;SDS011;10355;53.688;10.078;2023-03-23T00:44:31;6.88;;;3.35;;
20391;SDS011;10355;53.688;10.078;2023-03-23T00:47:15;6.10;;;3.75;;
20391;SDS011;10355;53.688;10.078;2023-03-23T00:49:57;5.93;;;3.97;;
20391;SDS011;10355;53.688;10.078;2023-03-23T00:52:39;5.95;;;4.00;;
20391;SDS011;10355;53.688;10.078;2023-03-23T00:55:21;6.57;;;3.80;;
20391;SDS011;10355;53.688;10.078;2023-03-23T00:58:02;4.95;;;3.78;;
20391;SDS011;10355;53.688;10.078;2023-03-23T01:00:45;4.82;;;3.88;;
20391;SDS011;10355;53.688;10.078;2023-03-23T01:03:27;6.18;;;4.05;;
20391;SDS011;10355;53.688;10.078;2023-03-23T01:06:12;5.43;;;3.83;;
20391;SDS011;10355;53.688;10.078;2023-03-23T01:08:57;4.90;;;3.95;;
20391;SDS011;10355;53.688;10.078;2023-03-23T01:11:39;6.97;;;4.00;;
20391;SDS011;10355;53.688;10.078;2023-03-23T01:14:20;6.43;;;4.40;;
20391;SDS011;10355;53.688;10.078;2023-03-23T01:17:05;5.35;;;3.83;;
20391;SDS011;10355;53.688;10.078;2023-03-23T01:19:48;5.55;;;3.70;;
20391;SDS011;10355;53.688;10.078;2023-03-23T01:22:31;4.55;;;3.72;;
20391;SDS011;10355;53.688;10.078;2023-03-23T01:25:13;4.53;;;3.55;;
20391;SDS011;10355;53.688;10.078;2023-03-23T01:27:55;7.05;;;3.60;;
20391;SDS011;10355;53.688;10.078;2023-03-23T01:30:37;4.97;;;3.50;;
20391;SDS011;10355;53.688;10.078;2023-03-23T01:33:20;6.43;;;4.05;;
20391;SDS011;10355;53.688;10.078;2023-03-23T01:36:02;7.15;;;3.88;;
20391;SDS011;10355;53.688;10.078;2023-03-23T01:38:45;5.78;;;3.22;;
20391;SDS011;10355;53.688;10.078;2023-03-23T01:41:27;5.18;;;3.50;;
20391;SDS011;10355;53.688;10.078;2023-03-23T01:47:20;5.75;;;3.55;;
20391;SDS011;10355;53.688;10.078;2023-03-23T01:50:09;4.63;;;3.65;;
20391;SDS011;10355;53.688;10.078;2023-03-23T01:52:51;4.00;;;3.20;;
20391;SDS011;10355;53.688;10.078;2023-03-23T01:55:33;4.20;;;3.50;;
20391;SDS011;10355;53.688;10.078;2023-03-23T01:58:19;4.40;;;3.78;;
20391;SDS011;10355;53.688;10.078;2023-03-23T02:01:03;5.80;;;3.63;;
20391;SDS011;10355;53.688;10.078;2023-03-23T02:03:45;5.45;;;3.78;;
20391;SDS011;10355;53.688;10.078;2023-03-23T02:06:29;6.18;;;3.63;;
20391;SDS011;10355;53.688;10.078;2023-03-23T02:09:20;5.65;;;3.95;;
20391;SDS011;10355;53.688;10.078;2023-03-23T02:12:03;6.22;;;4.13;;
20391;SDS011;10355;53.688;10.078;2023-03-23T02:14:45;6.65;;;4.10;;
20391;SDS011;10355;53.688;10.078;2023-03-23T02:17:28;5.25;;;4.15;;
20391;SDS011;10355;53.688;10.078;2023-03-23T02:23:16;5.80;;;4.07;;
20391;SDS011;10355;53.688;10.078;2023-03-23T02:26:01;5.50;;;4.15;;
20391;SDS011;10355;53.688;10.078;2023-03-23T02:28:54;6.28;;;3.97;;
20391;SDS011;10355;53.688;10.078;2023-03-23T02:31:47;6.72;;;4.25;;
20391;SDS011;10355;53.688;10.078;2023-03-23T02:34:35;6.75;;;4.00;;
20391;SDS011;10355;53.688;10.078;2023-03-23T02:37:19;5.80;;;3.90;;
20391;SDS011;10355;53.688;10.078;2023-03-23T02:40:03;5.13;;;3.65;;
20391;SDS011;10355;53.688;10.078;2023-03-23T02:42:49;4.30;;;3.70;;
20391;SDS011;10355;53.688;10.078;2023-03-23T02:45:31;7.85;;;4.60;;
20391;SDS011;10355;53.688;10.078;2023-03-23T02:48:14;5.03;;;3.53;;
20391;SDS011;10355;53.688;10.078;2023-03-23T02:50:58;5.50;;;3.47;;
20391;SDS011;10355;53.688;10.078;2023-03-23T02:53:42;4.85;;;3.30;;
20391;SDS011;10355;53.688;10.078;2023-03-23T02:56:25;7.32;;;3.47;;
20391;SDS011;10355;53.688;10.078;2023-03-23T02:59:08;5.35;;;3.67;;
20391;SDS011;10355;53.688;10.078;2023-03-23T03:01:55;4.50;;;3.20;;
20391;SDS011;10355;53.688;10.078;2023-03-23T03:04:40;5.88;;;3.30;;
20391;SDS011;10355;53.688;10.078;2023-03-23T03:07:32;5.18;;;3.38;;
20391;SDS011;10355;53.688;10.078;2023-03-23T03:10:18;5.20;;;3.35;;
20391;SDS011;10355;53.688;10.078;2023-03-23T03:13:03;5.15;;;3.03;;
20391;SDS011;10355;53.688;10.078;2023-03-23T03:15:47;3.42;;;2.88;;
20391;SDS011;10355;53.688;10.078;2023-03-23T03:18:37;4.32;;;3.30;;
20391;SDS011;10355;53.688;10.078;2023-03-23T03:21:20;4.97;;;3.40;;
20391;SDS011;10355;53.688;10.078;2023-03-23T03:24:08;3.67;;;3.13;;
20391;SDS011;10355;53.688;10.078;2023-03-23T03:26:52;4.82;;;3.35;;
20391;SDS011;10355;53.688;10.078;2023-03-23T03:29:56;5.13;;;3.17;;
20391;SDS011;10355;53.688;10.078;2023-03-23T03:32:41;5.07;;;3.33;;
20391;SDS011;10355;53.688;10.078;2023-03-23T03:35:24;4.18;;;3.40;;
20391;SDS011;10355;53.688;10.078;2023-03-23T03:38:06;3.95;;;3.00;;
20391;SDS011;10355;53.688;10.078;2023-03-23T03:40:50;4.72;;;3.30;;
20391;SDS011;10355;53.688;10.078;2023-03-23T03:43:32;5.50;;;3.45;;
20391;SDS011;10355;53.688;10.078;2023-03-23T03:46:15;5.25;;;3.53;;
20391;SDS011;10355;53.688;10.078;2023-03-23T03:48:57;6.95;;;3.75;;
20391;SDS011;10355;53.688;10.078;2023-03-23T03:51:38;3.53;;;3.22;;
20391;SDS011;10355;53.688;10.078;2023-03-23T03:54:22;5.60;;;3.38;;
20391;SDS011;10355;53.688;10.078;2023-03-23T03:57:05;4.43;;;3.08;;
20391;SDS011;10355;53.688;10.078;2023-03-23T04:00:05;5.40;;;3.45;;
20391;SDS011;10355;53.688;10.078;2023-03-23T04:02:55;6.40;;;3.38;;
20391;SDS011;10355;53.688;10.078;2023-03-23T04:05:53;5.18;;;3.63;;
20391;SDS011;10355;53.688;10.078;2023-03-23T04:08:36;5.10;;;3.60;;
20391;SDS011;10355;53.688;10.078;2023-03-23T04:11:18;6.97;;;3.97;;
20391;SDS011;10355;53.688;10.078;2023-03-23T04:14:02;5.07;;;3.88;;
20391;SDS011;10355;53.688;10.078;2023-03-23T04:16:54;6.28;;;3.55;;
20391;SDS011;10355;53.688;10.078;2023-03-23T04:19:38;6.53;;;3.53;;
20391;SDS011;10355;53.688;10.078;2023-03-23T04:22:20;5.63;;;3.63;;
20391;SDS011;10355;53.688;10.078;2023-03-23T04:25:05;4.05;;;3.40;;
20391;SDS011;10355;53.688;10.078;2023-03-23T04:27:51;5.55;;;3.53;;
20391;SDS011;10355;53.688;10.078;2023-03-23T04:30:39;5.93;;;3.40;;
20391;SDS011;10355;53.688;10.078;2023-03-23T04:33:25;4.68;;;3.35;;
20391;SDS011;10355;53.688;10.078;2023-03-23T04:36:08;5.32;;;3.70;;
20391;SDS011;10355;53.688;10.078;2023-03-23T04:38:53;5.10;;;3.55;;
20391;SDS011;10355;53.688;10.078;2023-03-23T04:41:37;6.40;;;3.78;;
20391;SDS011;10355;53.688;10.078;2023-03-23T04:44:34;5.30;;;3.75;;
20391;SDS011;10355;53.688;10.078;2023-03-23T04:47:26;4.88;;;3.70;;
20391;SDS011;10355;53.688;10.078;2023-03-23T04:50:12;4.82;;;3.42;;
20391;SDS011;10355;53.688;10.078;2023-03-23T04:52:55;5.65;;;3.35;;
20391;SDS011;10355;53.688;10.078;2023-03-23T04:55:38;6.82;;;3.53;;
20391;SDS011;10355;53.688;10.078;2023-03-23T04:58:23;5.80;;;3.70;;
20391;SDS011;10355;53.688;10.078;2023-03-23T05:01:26;5.22;;;3.67;;
20391;SDS011;10355;53.688;10.078;2023-03-23T05:04:23;5.55;;;3.67;;
20391;SDS011;10355;53.688;10.078;2023-03-23T05:07:31;5.82;;;3.80;;
20391;SDS011;10355;53.688;10.078;2023-03-23T05:10:13;5.13;;;3.70;;
20391;SDS011;10355;53.688;10.078;2023-03-23T05:12:55;6.22;;;3.45;;
20391;SDS011;10355;53.688;10.078;2023-03-23T05:15:37;7.38;;;4.03;;
20391;SDS011;10355;53.688;10.078;2023-03-23T05:18:22;4.63;;;3.63;;
20391;SDS011;10355;53.688;10.078;2023-03-23T05:21:05;6.43;;;3.58;;
20391;SDS011;10355;53.688;10.078;2023-03-23T05:23:50;5.75;;;3.97;;
20391;SDS011;10355;53.688;10.078;2023-03-23T05:26:36;5.68;;;3.50;;
20391;SDS011;10355;53.688;10.078;2023-03-23T05:29:24;4.85;;;4.00;;
20391;SDS011;10355;53.688;10.078;2023-03-23T05:32:11;6.25;;;3.75;;
20391;SDS011;10355;53.688;10.078;2023-03-23T05:34:53;7.40;;;3.95;;
20391;SDS011;10355;53.688;10.078;2023-03-23T05:37:36;5.68;;;4.05;;
20391;SDS011;10355;53.688;10.078;2023-03-23T05:40:24;6.97;;;3.90;;
20391;SDS011;10355;53.688;10.078;2023-03-23T05:43:11;5.28;;;3.65;;
20391;SDS011;10355;53.688;10.078;2023-03-23T05:46:09;5.00;;;4.13;;
20391;SDS011;10355;53.688;10.078;2023-03-23T05:48:52;5.55;;;3.80;;
20391;SDS011;10355;53.688;10.078;2023-03-23T05:51:37;6.10;;;3.75;;
20391;SDS011;10355;53.688;10.078;2023-03-23T05:54:21;4.88;;;3.53;;
20391;SDS011;10355;53.688;10.078;2023-03-23T05:57:04;6.20;;;4.28;;
20391;SDS011;10355;53.688;10.078;2023-03-23T05:59:56;5.38;;;3.60;;
20391;SDS011;10355;53.688;10.078;2023-03-23T06:02:39;4.80;;;3.67;;
20391;SDS011;10355;53.688;10.078;2023-03-23T06:05:26;7.25;;;3.70;;
20391;SDS011;10355;53.688;10.078;2023-03-23T06:08:09;6.00;;;3.58;;
20391;SDS011;10355;53.688;10.078;2023-03-23T06:10:53;5.32;;;3.20;;
20391;SDS011;10355;53.688;10.078;2023-03-23T06:13:35;5.25;;;3.35;;
20391;SDS011;10355;53.688;10.078;2023-03-23T06:16:21;6.38;;;3.40;;
20391;SDS011;10355;53.688;10.078;2023-03-23T06:19:09;4.68;;;3.22;;
20391;SDS011;10355;53.688;10.078;2023-03-23T06:21:57;4.57;;;2.92;;
20391;SDS011;10355;53.688;10.078;2023-03-23T06:24:57;5.65;;;3.05;;
20391;SDS011;10355;53.688;10.078;2023-03-23T06:27:49;8.05;;;2.95;;
20391;SDS011;10355;53.688;10.078;2023-03-23T06:30:32;4.32;;;2.95;;
20391;SDS011;10355;53.688;10.078;2023-03-23T06:33:14;5.20;;;2.90;;
20391;SDS011;10355;53.688;10.078;2023-03-23T06:36:15;4.65;;;2.80;;
20391;SDS011;10355;53.688;10.078;2023-03-23T06:39:11;4.60;;;3.00;;
20391;SDS011;10355;53.688;10.078;2023-03-23T06:42:09;4.93;;;2.70;;
20391;SDS011;10355;53.688;10.078;2023-03-23T06:44:55;6.80;;;3.10;;
20391;SDS011;10355;53.688;10.078;2023-03-23T06:47:38;5.78;;;2.63;;
20391;SDS011;10355;53.688;10.078;2023-03-23T06:50:20;5.07;;;2.78;;
20391;SDS011;10355;53.688;10.078;2023-03-23T06:53:02;4.90;;;2.30;;
20391;SDS011;10355;53.688;10.078;2023-03-23T06:55:44;5.10;;;3.08;;
20391;SDS011;10355;53.688;10.078;2023-03-23T06:58:26;4.88;;;2.58;;
20391;SDS011;10355;53.688;10.078;2023-03-23T07:01:09;4.13;;;2.58;;
20391;SDS011;10355;53.688;10.078;2023-03-23T07:03:59;3.55;;;2.40;;
20391;SDS011;10355;53.688;10.078;2023-03-23T07:06:53;3.95;;;2.25;;
20391;SDS011;10355;53.688;10.078;2023-03-23T07:09:34;3.95;;;2.50;;
20391;SDS011;10355;53.688;10.078;2023-03-23T07:12:16;6.03;;;2.42;;
20391;SDS011;10355;53.688;10.078;2023-03-23T07:15:01;4.20;;;2.28;;
20391;SDS011;10355;53.688;10.078;2023-03-23T07:17:44;4.13;;;2.42;;
20391;SDS011;10355;53.688;10.078;2023-03-23T07:20:34;3.38;;;2.30;;
20391;SDS011;10355;53.688;10.078;2023-03-23T07:23:16;4.63;;;2.35;;
20391;SDS011;10355;53.688;10.078;2023-03-23T07:26:12;3.63;;;2.13;;
20391;SDS011;10355;53.688;10.078;2023-03-23T07:29:02;5.13;;;2.42;;
20391;SDS011;10355;53.688;10.078;2023-03-23T07:31:49;3.55;;;2.30;;
20391;SDS011;10355;53.688;10.078;2023-03-23T07:34:33;3.38;;;1.98;;
20391;SDS011;10355;53.688;10.078;2023-03-23T07:37:26;3.25;;;1.98;;
20391;SDS011;10355;53.688;10.078;2023-03-23T07:40:09;4.00;;;2.05;;
20391;SDS011;10355;53.688;10.078;2023-03-23T07:42:52;2.47;;;2.03;;
20391;SDS011;10355;53.688;10.078;2023-03-23T07:45:43;3.55;;;2.10;;
20391;SDS011;10355;53.688;10.078;2023-03-23T07:48:27;4.75;;;2.00;;
20391;SDS011;10355;53.688;10.078;2023-03-23T07:51:11;4.10;;;2.05;;
20391;SDS011;10355;53.688;10.078;2023-03-23T07:53:54;5.30;;;2.22;;
20391;SDS011;10355;53.688;10.078;2023-03-23T07:57:02;5.97;;;2.10;;
20391;SDS011;10355;53.688;10.078;2023-03-23T07:59:47;5.07;;;2.25;;
20391;SDS011;10355;53.688;10.078;2023-03-23T08:02:29;5.32;;;2.08;;
20391;SDS011;10355;53.688;10.078;2023-03-23T08:05:47;3.38;;;2.20;;
20391;SDS011;10355;53.688;10.078;2023-03-23T08:08:50;3.95;;;2.00;;
20391;SDS011;10355;53.688;10.078;2023-03-23T08:11:50;2.95;;;1.40;;
20391;SDS011;10355;53.688;10.078;2023-03-23T08:14:32;1.55;;;0.75;;
20391;SDS011;10355;53.688;10.078;2023-03-23T08:17:34;3.45;;;0.80;;
20391;SDS011;10355;53.688;10.078;2023-03-23T08:20:29;0.85;;;0.50;;
20391;SDS011;10355;53.688;10.078;2023-03-23T08:23:14;1.15;;;0.60;;
20391;SDS011;10355;53.688;10.078;2023-03-23T08:26:21;2.03;;;0.90;;
20391;SDS011;10355;53.688;10.078;2023-03-23T08:29:20;5.72;;;0.55;;
20391;SDS011;10355;53.688;10.078;2023-03-23T08:32:22;0.95;;;0.50;;
20391;SDS011;10355;53.688;10.078;2023-03-23T08:35:36;0.80;;;0.50;;
20391;SDS011;10355;53.688;10.078;2023-03-23T08:38:44;2.25;;;0.60;;
20391;SDS011;10355;53.688;10.078;2023-03-23T08:41:53;1.33;;;0.60;;
20391;SDS011;10355;53.688;10.078;2023-03-23T08:44:53;3.50;;;0.60;;
20391;SDS011;10355;53.688;10.078;2023-03-23T08:47:56;1.17;;;0.50;;
20391;SDS011;10355;53.688;10.078;2023-03-23T08:50:45;0.65;;;0.40;;
20391;SDS011;10355;53.688;10.078;2023-03-23T08:53:26;0.90;;;0.50;;
20391;SDS011;10355;53.688;10.078;2023-03-23T08:56:36;2.85;;;0.70;;
20391;SDS011;10355;53.688;10.078;2023-03-23T08:59:38;2.20;;;0.70;;
20391;SDS011;10355;53.688;10.078;2023-03-23T09:02:31;2.17;;;0.80;;
20391;SDS011;10355;53.688;10.078;2023-03-23T09:05:28;1.67;;;0.70;;
20391;SDS011;10355;53.688;10.078;2023-03-23T09:08:17;2.08;;;0.70;;
20391;SDS011;10355;53.688;10.078;2023-03-23T09:10:59;2.13;;;0.60;;
20391;SDS011;10355;53.688;10.078;2023-03-23T09:13:40;3.47;;;0.90;;
20391;SDS011;10355;53.688;10.078;2023-03-23T09:16:23;3.58;;;0.73;;
20391;SDS011;10355;53.688;10.078;2023-03-23T09:19:05;2.92;;;0.80;;
20391;SDS011;10355;53.688;10.078;2023-03-23T09:21:49;2.70;;;1.05;;
20391;SDS011;10355;53.688;10.078;2023-03-23T09:24:31;3.42;;;0.85;;
20391;SDS011;10355;53.688;10.078;2023-03-23T09:27:12;2.42;;;1.10;;
20391;SDS011;10355;53.688;10.078;2023-03-23T09:29:55;3.20;;;1.10;;
20391;SDS011;10355;53.688;10.078;2023-03-23T09:32:38;1.52;;;1.05;;
20391;SDS011;10355;53.688;10.078;2023-03-23T09:35:20;3.47;;;1.20;;
20391;SDS011;10355;53.688;10.078;2023-03-23T09:38:02;2.08;;;1.10;;
20391;SDS011;10355;53.688;10.078;2023-03-23T09:40:46;5.28;;;1.25;;
20391;SDS011;10355;53.688;10.078;2023-03-23T09:43:32;3.85;;;1.20;;
20391;SDS011;10355;53.688;10.078;2023-03-23T09:46:20;5.70;;;1.50;;
20391;SDS011;10355;53.688;10.078;2023-03-23T09:49:07;3.17;;;1.15;;
20391;SDS011;10355;53.688;10.078;2023-03-23T09:51:51;4.90;;;1.10;;
20391;SDS011;10355;53.688;10.078;2023-03-23T09:54:34;2.58;;;1.30;;
20391;SDS011;10355;53.688;10.078;2023-03-23T09:57:19;4.13;;;1.20;;
20391;SDS011;10355;53.688;10.078;2023-03-23T10:00:06;7.28;;;1.50;;
20391;SDS011;10355;53.688;10.078;2023-03-23T10:02:55;4.05;;;1.23;;
20391;SDS011;10355;53.688;10.078;2023-03-23T10:05:41;5.20;;;1.35;;
20391;SDS011;10355;53.688;10.078;2023-03-23T10:08:24;10.60;;;1.50;;
20391;SDS011;10355;53.688;10.078;2023-03-23T10:11:09;8.13;;;1.13;;
20391;SDS011;10355;53.688;10.078;2023-03-23T10:13:55;4.28;;;1.17;;
20391;SDS011;10355;53.688;10.078;2023-03-23T10:16:42;8.07;;;1.30;;
20391;SDS011;10355;53.688;10.078;2023-03-23T10:19:27;4.30;;;1.10;;
20391;SDS011;10355;53.688;10.078;2023-03-23T10:22:12;4.55;;;1.30;;
20391;SDS011;10355;53.688;10.078;2023-03-23T10:24:58;4.88;;;1.50;;
20391;SDS011;10355;53.688;10.078;2023-03-23T10:27:44;7.53;;;1.58;;
20391;SDS011;10355;53.688;10.078;2023-03-23T10:30:27;5.93;;;1.00;;
20391;SDS011;10355;53.688;10.078;2023-03-23T10:33:12;6.25;;;1.50;;
20391;SDS011;10355;53.688;10.078;2023-03-23T10:35:57;8.45;;;1.60;;
20391;SDS011;10355;53.688;10.078;2023-03-23T10:38:43;6.53;;;1.40;;
20391;SDS011;10355;53.688;10.078;2023-03-23T10:41:25;6.70;;;1.70;;
20391;SDS011;10355;53.688;10.078;2023-03-23T10:44:09;5.53;;;1.30;;
20391;SDS011;10355;53.688;10.078;2023-03-23T10:46:53;4.50;;;1.25;;
20391;SDS011;10355;53.688;10.078;2023-03-23T10:49:38;3.70;;;1.20;;
20391;SDS011;10355;53.688;10.078;2023-03-23T10:52:24;3.00;;;1.05;;
20391;SDS011;10355;53.688;10.078;2023-03-23T10:55:09;5.47;;;1.20;;
20391;SDS011;10355;53.688;10.078;2023-03-23T10:58:01;7.38;;;1.70;;
20391;SDS011;10355;53.688;10.078;2023-03-23T11:00:43;6.03;;;1.30;;
20391;SDS011;10355;53.688;10.078;2023-03-23T11:03:29;8.18;;;1.45;;
20391;SDS011;10355;53.688;10.078;2023-03-23T11:06:19;4.15;;;1.15;;
20391;SDS011;10355;53.688;10.078;2023-03-23T11:09:03;4.38;;;1.13;;
20391;SDS011;10355;53.688;10.078;2023-03-23T11:11:52;10.05;;;1.67;;
20391;SDS011;10355;53.688;10.078;2023-03-23T11:14:34;7.60;;;1.50;;
20391;SDS011;10355;53.688;10.078;2023-03-23T11:17:20;3.78;;;1.20;;
20391;SDS011;10355;53.688;10.078;2023-03-23T11:20:09;7.72;;;1.45;;
20391;SDS011;10355;53.688;10.078;2023-03-23T11:22:51;6.85;;;1.35;;
20391;SDS011;10355;53.688;10.078;2023-03-23T11:25:33;5.00;;;1.17;;
20391;SDS011;10355;53.688;10.078;2023-03-23T11:28:16;10.60;;;1.65;;
20391;SDS011;10355;53.688;10.078;2023-03-23T11:30:59;8.18;;;1.58;;
20391;SDS011;10355;53.688;10.078;2023-03-23T11:33:47;8.13;;;1.55;;
20391;SDS011;10355;53.688;10.078;2023-03-23T11:36:31;8.00;;;1.75;;
20391;SDS011;10355;53.688;10.078;2023-03-23T11:39:20;5.47;;;1.40;;
20391;SDS011;10355;53.688;10.078;2023-03-23T11:42:11;6.88;;;1.52;;
20391;SDS011;10355;53.688;10.078;2023-03-23T11:44:54;7.25;;;1.40;;
20391;SDS011;10355;53.688;10.078;2023-03-23T11:47:51;8.32;;;1.52;;
20391;SDS011;10355;53.688;10.078;2023-03-23T11:50:35;6.50;;;1.50;;
20391;SDS011;10355;53.688;10.078;2023-03-23T11:53:21;3.08;;;1.00;;
20391;SDS011;10355;53.688;10.078;2023-03-23T11:56:06;9.02;;;1.83;;
20391;SDS011;10355;53.688;10.078;2023-03-23T11:58:49;9.48;;;1.27;;
20391;SDS011;10355;53.688;10.078;2023-03-23T12:01:36;13.75;;;1.52;;
20391;SDS011;10355;53.688;10.078;2023-03-23T12:07:25;13.10;;;1.70;;
20391;SDS011;10355;53.688;10.078;2023-03-23T12:10:13;5.68;;;1.35;;
20391;SDS011;10355;53.688;10.078;2023-03-23T12:13:01;7.95;;;1.30;;
20391;SDS011;10355;53.688;10.078;2023-03-23T12:15:45;9.15;;;1.50;;
20391;SDS011;10355;53.688;10.078;2023-03-23T12:18:32;9.23;;;1.90;;
20391;SDS011;10355;53.688;10.078;2023-03-23T12:21:17;10.05;;;1.55;;
20391;SDS011;10355;53.688;10.078;2023-03-23T12:24:02;9.98;;;1.33;;
20391;SDS011;10355;53.688;10.078;2023-03-23T12:26:46;6.47;;;1.40;;
20391;SDS011;10355;53.688;10.078;2023-03-23T12:29:35;7.30;;;1.42;;
20391;SDS011;10355;53.688;10.078;2023-03-23T12:32:30;5.78;;;1.38;;
20391;SDS011;10355;53.688;10.078;2023-03-23T12:35:17;7.22;;;1.77;;
20391;SDS011;10355;53.688;10.078;2023-03-23T12:38:12;7.20;;;1.45;;
20391;SDS011;10355;53.688;10.078;2023-03-23T12:41:00;8.25;;;1.35;;
20391;SDS011;10355;53.688;10.078;2023-03-23T12:43:48;4.45;;;1.45;;
20391;SDS011;10355;53.688;10.078;2023-03-23T12:46:44;5.35;;;1.42;;
20391;SDS011;10355;53.688;10.078;2023-03-23T12:49:29;6.18;;;1.10;;
20391;SDS011;10355;53.688;10.078;2023-03-23T12:52:15;7.93;;;1.52;;
20391;SDS011;10355;53.688;10.078;2023-03-23T12:54:59;7.80;;;1.65;;
20391;SDS011;10355;53.688;10.078;2023-03-23T12:57:43;10.05;;;1.75;;
20391;SDS011;10355;53.688;10.078;2023-03-23T13:00:28;6.35;;;1.42;;
20391;SDS011;10355;53.688;10.078;2023-03-23T13:03:11;4.32;;;1.42;;
20391;SDS011;10355;53.688;10.078;2023-03-23T13:05:58;4.15;;;1.35;;
20391;SDS011;10355;53.688;10.078;2023-03-23T13:08:45;7.28;;;1.90;;
20391;SDS011;10355;53.688;10.078;2023-03-23T13:11:29;2.75;;;1.30;;
20391;SDS011;10355;53.688;10.078;2023-03-23T13:14:18;5.10;;;1.98;;
20391;SDS011;10355;53.688;10.078;2023-03-23T13:17:05;6.05;;;1.92;;
20391;SDS011;10355;53.688;10.078;2023-03-23T13:19:55;6.10;;;1.95;;
20391;SDS011;10355;53.688;10.078;2023-03-23T13:22:39;4.40;;;2.00;;
20391;SDS011;10355;53.688;10.078;2023-03-23T13:25:28;10.00;;;1.70;;
20391;SDS011;10355;53.688;10.078;2023-03-23T13:28:13;9.25;;;1.75;;
20391;SDS011;10355;53.688;10.078;2023-03-23T13:30:56;4.78;;;1.70;;
20391;SDS011;10355;53.688;10.078;2023-03-23T13:33:38;5.50;;;1.80;;
20391;SDS011;10355;53.688;10.078;2023-03-23T13:36:27;5.00;;;2.10;;
20391;SDS011;10355;53.688;10.078;2023-03-23T13:39:17;7.22;;;1.83;;
20391;SDS011;10355;53.688;10.078;2023-03-23T13:42:02;5.38;;;2.00;;
20391;SDS011;10355;53.688;10.078;2023-03-23T13:44:54;6.40;;;1.70;;
20391;SDS011;10355;53.688;10.078;2023-03-23T13:47:37;10.13;;;1.73;;
20391;SDS011;10355;53.688;10.078;2023-03-23T13:50:25;4.20;;;1.38;;
20391;SDS011;10355;53.688;10.078;2023-03-23T13:53:13;6.68;;;1.90;;
20391;SDS011;10355;53.688;10.078;2023-03-23T13:59:06;3.33;;;0.85;;
20391;SDS011;10355;53.688;10.078;2023-03-23T14:01:48;3.83;;;0.80;;
20391;SDS011;10355;53.688;10.078;2023-03-23T14:04:31;3.33;;;0.60;;
20391;SDS011;10355;53.688;10.078;2023-03-23T14:07:15;6.38;;;0.63;;
20391;SDS011;10355;53.688;10.078;2023-03-23T14:10:04;2.22;;;0.60;;
20391;SDS011;10355;53.688;10.078;2023-03-23T14:12:48;2.85;;;0.57;;
20391;SDS011;10355;53.688;10.078;2023-03-23T14:15:42;1.08;;;0.60;;
20391;SDS011;10355;53.688;10.078;2023-03-23T14:18:29;2.70;;;0.80;;
20391;SDS011;10355;53.688;10.078;2023-03-23T14:21:13;2.65;;;0.77;;
20391;SDS011;10355;53.688;10.078;2023-03-23T14:23:55;1.98;;;0.80;;
20391;SDS011;10355;53.688;10.078;2023-03-23T14:26:37;1.58;;;0.63;;
20391;SDS011;10355;53.688;10.078;2023-03-23T14:29:20;2.35;;;0.75;;
20391;SDS011;10355;53.688;10.078;2023-03-23T14:32:04;1.67;;;0.70;;
20391;SDS011;10355;53.688;10.078;2023-03-23T14:34:47;3.05;;;0.88;;
20391;SDS011;10355;53.688;10.078;2023-03-23T14:37:29;4.30;;;0.70;;
20391;SDS011;10355;53.688;10.078;2023-03-23T14:40:12;2.30;;;0.80;;
20391;SDS011;10355;53.688;10.078;2023-03-23T14:42:55;4.30;;;1.25;;
20391;SDS011;10355;53.688;10.078;2023-03-23T14:45:37;2.38;;;0.85;;
20391;SDS011;10355;53.688;10.078;2023-03-23T14:48:20;2.10;;;0.90;;
20391;SDS011;10355;53.688;10.078;2023-03-23T14:51:03;2.95;;;1.13;;
20391;SDS011;10355;53.688;10.078;2023-03-23T14:53:47;6.03;;;0.93;;
20391;SDS011;10355;53.688;10.078;2023-03-23T14:56:33;4.53;;;1.05;;
20391;SDS011;10355;53.688;10.078;2023-03-23T14:59:14;3.80;;;0.88;;
20391;SDS011;10355;53.688;10.078;2023-03-23T15:01:56;4.22;;;1.08;;
20391;SDS011;10355;53.688;10.078;2023-03-23T15:04:43;2.75;;;1.00;;
20391;SDS011;10355;53.688;10.078;2023-03-23T15:07:29;5.35;;;1.17;;
20391;SDS011;10355;53.688;10.078;2023-03-23T15:10:13;5.18;;;1.02;;
20391;SDS011;10355;53.688;10.078;2023-03-23T15:12:55;1.92;;;0.90;;
20391;SDS011;10355;53.688;10.078;2023-03-23T15:15:38;4.72;;;0.73;;
20391;SDS011;10355;53.688;10.078;2023-03-23T15:18:26;3.28;;;0.90;;
20391;SDS011;10355;53.688;10.078;2023-03-23T15:21:19;3.53;;;0.80;;
20391;SDS011;10355;53.688;10.078;2023-03-23T15:24:02;3.05;;;1.00;;
20391;SDS011;10355;53.688;10.078;2023-03-23T15:26:44;3.08;;;0.90;;
20391;SDS011;10355;53.688;10.078;2023-03-23T15:29:26;3.30;;;1.10;;
20391;SDS011;10355;53.688;10.078;2023-03-23T15:32:09;2.92;;;0.90;;
20391;SDS011;10355;53.688;10.078;2023-03-23T15:34:51;4.75;;;1.10;;
20391;SDS011;10355;53.688;10.078;2023-03-23T15:37:34;2.53;;;0.88;;
20391;SDS011;10355;53.688;10.078;2023-03-23T15:40:21;4.78;;;1.00;;
20391;SDS011;10355;53.688;10.078;2023-03-23T15:43:07;3.28;;;1.10;;
20391;SDS011;10355;53.688;10.078;2023-03-23T15:45:53;3.25;;;1.10;;
20391;SDS011;10355;53.688;10.078;2023-03-23T15:48:45;3.92;;;1.27;;
20391;SDS011;10355;53.688;10.078;2023-03-23T15:51:29;4.40;;;0.90;;
20391;SDS011;10355;53.688;10.078;2023-03-23T15:54:14;2.58;;;0.90;;
20391;SDS011;10355;53.688;10.078;2023-03-23T15:56:56;6.93;;;1.25;;
20391;SDS011;10355;53.688;10.078;2023-03-23T15:59:37;1.73;;;0.70;;
20391;SDS011;10355;53.688;10.078;2023-03-23T16:02:21;2.60;;;1.00;;
20391;SDS011;10355;53.688;10.078;2023-03-23T16:05:05;5.20;;;0.90;;
20391;SDS011;10355;53.688;10.078;2023-03-23T16:07:48;3.45;;;0.90;;
20391;SDS011;10355;53.688;10.078;2023-03-23T16:10:32;4.13;;;1.00;;
20391;SDS011;10355;53.688;10.078;2023-03-23T16:13:15;4.53;;;1.25;;
20391;SDS011;10355;53.688;10.078;2023-03-23T16:15:58;2.97;;;1.20;;
20391;SDS011;10355;53.688;10.078;2023-03-23T16:18:41;4.93;;;1.10;;
20391;SDS011;10355;53.688;10.078;2023-03-23T16:21:23;2.75;;;1.15;;
20391;SDS011;10355;53.688;10.078;2023-03-23T16:24:06;3.72;;;1.60;;
20391;SDS011;10355;53.688;10.078;2023-03-23T16:26:51;3.97;;;1.10;;
20391;SDS011;10355;53.688;10.078;2023-03-23T16:29:33;7.82;;;0.95;;
20391;SDS011;10355;53.688;10.078;2023-03-23T16:32:20;3.38;;;0.70;;
20391;SDS011;10355;53.688;10.078;2023-03-23T16:35:03;3.08;;;1.00;;
20391;SDS011;10355;53.688;10.078;2023-03-23T16:37:47;3.10;;;0.90;;